createdAt,value
2019-04-22T00:01:31.238Z,55.93
2019-04-22T00:04:03.628Z,56.15
2019-04-22T00:06:57.996Z,55.92
2019-04-22T00:09:30.962Z,56.10
2019-04-22T00:12:07.462Z,56.59
2019-04-22T00:14:28.030Z,56.70
2019-04-22T00:17:07.041Z,56.57
2019-04-22T00:19:43.780Z,56.41
2019-04-22T00:22:18.536Z,56.38
2019-04-22T00:24:46.201Z,56.67
2019-04-22T00:27:20.617Z,56.94
2019-04-22T00:30:01.779Z,56.79
2019-04-22T00:32:58.990Z,56.92
2019-04-22T00:35:23.688Z,57.35
2019-04-22T00:38:05.687Z,57.59
2019-04-22T00:40:33.919Z,57.81
2019-04-22T00:43:06.509Z,57.65
2019-04-22T00:45:40.163Z,57.76
2019-04-22T00:48:16.238Z,57.56
2019-04-22T00:50:58.342Z,57.99
2019-04-22T00:53:16.490Z,58.26
2019-04-22T00:56:11.189Z,59.24
2019-04-22T00:58:41.245Z,58.70
2019-04-22T01:03:51.056Z,59.13
2019-04-22T01:06:20.361Z,59.38
2019-04-22T01:13:55.846Z,58.96
2019-04-22T01:16:28.315Z,59.03
2019-04-22T01:19:00.535Z,59.18
2019-04-22T01:21:36.357Z,59.02
2019-04-22T01:24:05.832Z,58.81
2019-04-22T01:26:30.007Z,58.79
2019-04-22T01:29:03.948Z,58.77
2019-04-22T01:31:25.371Z,58.69
2019-04-22T01:34:08.179Z,58.33
2019-04-22T01:36:48.586Z,58.63
2019-04-22T01:39:25.841Z,58.94
2019-04-22T01:41:59.966Z,58.79
2019-04-22T01:44:45.475Z,59.11
2019-04-22T01:47:08.178Z,58.96
2019-04-22T01:49:33.425Z,59.23
2019-04-22T01:52:05.086Z,59.19
2019-04-22T01:54:43.286Z,59.04
2019-04-22T01:57:03.218Z,58.86
2019-04-22T01:59:35.513Z,59.63
2019-04-22T02:02:16.389Z,59.64
2019-04-22T02:04:53.198Z,59.38
2019-04-22T02:09:49.507Z,59.20
2019-04-22T02:12:25.872Z,59.10
2019-04-22T02:15:13.831Z,58.87
2019-04-22T02:17:31.513Z,58.95
2019-04-22T02:20:09.297Z,58.96
2019-04-22T02:22:50.823Z,58.97
2019-04-22T02:25:09.070Z,59.03
2019-04-22T02:27:49.319Z,59.41
2019-04-22T02:30:05.489Z,59.36
2019-04-22T02:33:03.883Z,59.60
2019-04-22T02:35:52.147Z,59.87
2019-04-22T02:37:45.419Z,59.66
2019-04-22T02:40:34.166Z,59.50
2019-04-22T02:43:01.778Z,61.35
2019-04-22T02:45:37.684Z,62.68
2019-04-22T02:48:10.750Z,63.74
2019-04-22T02:50:30.863Z,64.01
2019-04-22T02:53:17.532Z,63.52
2019-04-22T02:55:41.198Z,62.68
2019-04-22T02:58:12.689Z,61.84
2019-04-22T03:00:51.962Z,61.54
2019-04-22T03:05:59.203Z,61.00
2019-04-22T03:08:25.339Z,61.54
2019-04-22T03:11:13.110Z,60.98
2019-04-22T03:16:08.059Z,60.82
2019-04-22T03:18:42.043Z,61.37
2019-04-22T03:23:45.693Z,59.88
2019-04-22T03:26:27.517Z,60.21
2019-04-22T03:28:49.794Z,60.48
2019-04-22T03:32:36.139Z,60.29
2019-04-22T03:42:28.040Z,60.73
2019-04-22T03:47:38.707Z,61.58
2019-04-22T03:52:20.558Z,61.91
2019-04-22T03:55:05.091Z,62.01
2019-04-22T04:00:15.728Z,61.50
2019-04-22T04:02:41.001Z,61.41
2019-04-22T04:05:14.332Z,61.23
2019-04-22T04:10:21.541Z,60.88
2019-04-22T04:12:51.129Z,60.60
2019-04-22T04:15:21.008Z,60.31
2019-04-22T04:23:05.490Z,59.41
2019-04-22T04:25:37.993Z,59.58
2019-04-22T04:28:26.957Z,59.04
2019-04-22T04:37:58.827Z,58.33
2019-04-22T04:40:45.595Z,58.04
2019-04-22T04:43:10.020Z,57.79
2019-04-22T04:45:44.856Z,57.47
2019-04-22T04:48:14.494Z,56.61
2019-04-22T04:51:03.960Z,56.58
2019-04-22T04:53:23.147Z,55.48
2019-04-22T04:55:59.851Z,54.94
2019-04-22T04:58:36.666Z,54.75
2019-04-22T05:01:05.675Z,54.17
2019-04-22T05:03:39.591Z,53.89
2019-04-22T05:06:09.213Z,53.27
2019-04-22T05:08:54.595Z,52.73
2019-04-22T05:11:05.594Z,52.81
2019-04-22T05:18:46.514Z,50.48
2019-04-22T05:21:19.853Z,50.67
2019-04-22T05:23:43.893Z,49.94
2019-04-22T05:26:25.396Z,49.57
2019-04-22T05:28:55.243Z,50.23
2019-04-22T05:31:24.079Z,50.95
2019-04-22T05:33:47.747Z,50.66
2019-04-22T05:36:42.700Z,49.68
2019-04-22T05:41:30.470Z,48.04
2019-04-22T05:44:05.072Z,48.46
2019-04-22T05:46:34.810Z,48.44
2019-04-22T05:49:11.021Z,47.87
2019-04-22T05:51:37.007Z,47.51
2019-04-22T05:54:13.087Z,47.57
2019-04-22T06:01:52.257Z,47.06
2019-04-22T06:04:19.915Z,46.51
2019-04-22T06:06:46.878Z,45.35
2019-04-22T06:09:24.732Z,44.79
2019-04-22T06:11:55.547Z,43.53
2019-04-22T06:14:26.471Z,43.31
2019-04-22T06:19:38.541Z,44.59
2019-04-22T06:22:18.830Z,43.34
2019-04-22T06:24:47.443Z,43.16
2019-04-22T06:27:26.730Z,42.13
2019-04-22T06:29:41.391Z,41.61
2019-04-22T06:32:26.740Z,40.23
2019-04-22T06:34:52.540Z,40.64
2019-04-22T06:37:25.730Z,41.75
2019-04-22T06:39:51.210Z,41.85
2019-04-22T06:42:28.845Z,42.20
2019-04-22T06:45:07.283Z,41.43
2019-04-22T06:47:44.109Z,41.85
2019-04-22T06:50:07.590Z,41.18
2019-04-22T06:52:40.645Z,40.75
2019-04-22T06:55:28.661Z,39.22
2019-04-22T06:57:45.301Z,40.35
2019-04-22T07:00:22.539Z,40.17
2019-04-22T07:03:12.572Z,39.85
2019-04-22T07:05:23.560Z,37.75
2019-04-22T07:08:02.788Z,38.04
2019-04-22T07:12:56.585Z,38.05
2019-04-22T07:15:42.162Z,37.71
2019-04-22T07:18:04.299Z,35.92
2019-04-22T07:20:36.783Z,36.22
2019-04-22T07:23:07.928Z,35.73
2019-04-22T07:28:20.177Z,37.32
2019-04-22T07:30:57.945Z,36.72
2019-04-22T07:33:34.826Z,35.86
2019-04-22T07:35:54.895Z,35.37
2019-04-22T07:38:25.657Z,35.47
2019-04-22T07:40:50.393Z,35.33
2019-04-22T07:45:53.744Z,36.82
2019-04-22T07:48:38.198Z,36.37
2019-04-22T07:51:05.540Z,34.88
2019-04-22T07:53:33.795Z,37.05
2019-04-22T07:56:05.441Z,36.45
2019-04-22T07:58:38.757Z,35.98
2019-04-22T08:01:18.510Z,35.83
2019-04-22T08:03:54.904Z,35.21
2019-04-22T08:06:17.511Z,35.86
2019-04-22T08:08:46.250Z,35.73
2019-04-22T08:11:37.610Z,35.84
2019-04-22T08:13:47.424Z,35.75
2019-04-22T08:16:23.574Z,34.94
2019-04-22T08:19:15.579Z,34.75
2019-04-22T08:21:33.294Z,34.39
2019-04-22T08:24:01.231Z,35.93
2019-04-22T08:26:31.986Z,36.65
2019-04-22T08:29:12.305Z,35.39
2019-04-22T08:31:42.022Z,33.59
2019-04-22T08:34:13.733Z,34.83
2019-04-22T08:36:54.028Z,35.12
2019-04-22T08:41:46.583Z,34.81
2019-04-22T08:44:20.383Z,35.16
2019-04-22T08:46:57.865Z,36.37
2019-04-22T08:49:26.607Z,35.96
2019-04-22T08:51:56.246Z,34.81
2019-04-22T08:54:39.083Z,34.66
2019-04-22T08:57:01.870Z,34.61
2019-04-22T08:59:38.563Z,33.93
2019-04-22T09:02:16.663Z,33.46
2019-04-22T09:04:37.050Z,33.83
2019-04-22T09:09:44.785Z,32.95
2019-04-22T09:12:26.850Z,33.23
2019-04-22T09:14:45.871Z,33.62
2019-04-22T09:17:28.602Z,33.06
2019-04-22T09:19:56.017Z,33.25
2019-04-22T09:22:21.856Z,33.44
2019-04-22T09:24:57.322Z,32.85
2019-04-22T09:30:10.246Z,33.96
2019-04-22T09:32:38.687Z,33.95
2019-04-22T09:35:24.808Z,33.31
2019-04-22T09:45:15.473Z,33.83
2019-04-22T09:47:55.303Z,33.03
2019-04-22T09:50:27.602Z,32.86
2019-04-22T09:52:54.978Z,33.75
2019-04-22T09:55:26.648Z,33.84
2019-04-22T09:57:55.714Z,33.37
2019-04-22T10:00:38.075Z,33.29
2019-04-22T10:03:08.062Z,33.38
2019-04-22T10:05:48.347Z,33.02
2019-04-22T10:08:21.852Z,33.82
2019-04-22T10:10:48.977Z,34.65
2019-04-22T10:13:21.489Z,34.36
2019-04-22T10:15:54.397Z,35.11
2019-04-22T10:18:26.219Z,34.75
2019-04-22T10:20:54.196Z,34.96
2019-04-22T10:23:24.817Z,35.13
2019-04-22T10:25:59.089Z,35.20
2019-04-22T10:30:59.893Z,35.48
2019-04-22T10:33:32.745Z,35.32
2019-04-22T10:35:43.578Z,35.32
2019-04-22T10:38:14.419Z,35.18
2019-04-22T10:40:44.969Z,35.55
2019-04-22T10:43:16.956Z,35.03
2019-04-22T10:45:48.111Z,34.61
2019-04-22T10:48:18.668Z,34.65
2019-04-22T10:50:50.619Z,34.59
2019-04-22T10:53:21.694Z,34.98
2019-04-22T10:55:52.446Z,35.43
2019-04-22T10:58:24.661Z,35.48
2019-04-22T11:00:56.183Z,35.18
2019-04-22T11:03:28.262Z,36.34
2019-04-22T11:05:59.456Z,35.78
2019-04-22T11:08:38.588Z,35.60
2019-04-22T11:11:16.937Z,35.87
2019-04-22T11:13:35.891Z,35.50
2019-04-22T11:16:07.631Z,35.35
2019-04-22T11:18:38.233Z,35.96
2019-04-22T11:21:09.644Z,35.23
2019-04-22T11:23:40.785Z,35.81
2019-04-22T11:26:12.202Z,35.15
2019-04-22T11:28:43.401Z,35.46
2019-04-22T11:31:14.741Z,34.83
2019-04-22T11:33:45.469Z,34.59
2019-04-22T11:36:17.739Z,34.21
2019-04-22T11:38:54.067Z,34.36
2019-04-22T11:41:21.567Z,34.81
2019-04-22T11:43:53.597Z,34.35
2019-04-22T11:46:25.312Z,34.82
2019-04-22T11:48:56.079Z,35.48
2019-04-22T11:51:27.573Z,34.51
2019-04-22T11:53:58.902Z,34.44
2019-04-22T11:56:29.490Z,34.46
2019-04-22T11:59:00.702Z,34.93
2019-04-22T12:01:32.833Z,35.06
2019-04-22T12:04:04.041Z,35.28
2019-04-22T12:06:36.003Z,35.41
2019-04-22T12:09:10.170Z,35.32
2019-04-22T12:11:40.879Z,35.38
2019-04-22T12:14:11.838Z,35.30
2019-04-22T12:16:43.632Z,35.03
2019-04-22T12:19:15.666Z,35.10
2019-04-22T12:21:46.812Z,35.16
2019-04-22T12:24:17.370Z,35.12
2019-04-22T12:26:48.380Z,35.37
2019-04-22T12:29:18.991Z,34.92
2019-04-22T12:31:49.534Z,35.21
2019-04-22T12:34:21.440Z,34.75
2019-04-22T12:36:52.015Z,34.13
2019-04-22T12:39:23.266Z,34.33
2019-04-22T12:41:54.088Z,34.56
2019-04-22T12:44:26.600Z,35.32
2019-04-22T12:47:00.228Z,34.61
2019-04-22T12:49:30.054Z,34.19
2019-04-22T12:52:03.167Z,34.33
2019-04-22T12:54:35.194Z,34.25
2019-04-22T12:57:10.333Z,34.22
2019-04-22T12:59:41.844Z,34.02
2019-04-22T13:02:13.465Z,33.77
2019-04-22T13:04:45.909Z,33.88
2019-04-22T13:07:17.678Z,33.58
2019-04-22T13:09:49.505Z,33.50
2019-04-22T13:12:22.406Z,33.30
2019-04-22T13:15:04.361Z,33.20
2019-04-22T13:17:32.963Z,33.36
2019-04-22T13:20:07.982Z,33.24
2019-04-22T13:22:43.030Z,32.79
2019-04-22T13:25:23.298Z,32.92
2019-04-22T13:27:57.497Z,32.79
2019-04-22T13:30:30.557Z,32.91
2019-04-22T13:33:02.985Z,32.68
2019-04-22T13:35:33.905Z,32.72
2019-04-22T13:38:04.843Z,32.53
2019-04-22T13:40:37.156Z,32.12
2019-04-22T13:43:08.797Z,31.70
2019-04-22T13:45:40.794Z,31.94
2019-04-22T13:48:29.674Z,32.12
2019-04-22T13:51:24.357Z,31.90
2019-04-22T13:56:10.745Z,32.16
2019-04-22T13:58:36.414Z,31.92
2019-04-22T14:00:54.395Z,31.84
2019-04-22T14:03:49.924Z,32.28
2019-04-22T14:06:20.700Z,31.87
2019-04-22T14:08:51.530Z,31.80
2019-04-22T14:11:34.488Z,31.49
2019-04-22T14:13:56.610Z,31.83
2019-04-22T14:16:28.882Z,31.35
2019-04-22T14:19:00.225Z,31.75
2019-04-22T14:21:30.977Z,31.79
2019-04-22T14:24:02.703Z,31.64
2019-04-22T14:26:44.082Z,31.31
2019-04-22T14:29:06.083Z,31.44
2019-04-22T14:31:36.587Z,31.26
2019-04-22T14:34:08.159Z,31.66
2019-04-22T14:36:41.379Z,31.70
2019-04-22T14:39:12.349Z,31.55
2019-04-22T14:41:57.332Z,31.64
2019-04-22T14:47:12.851Z,32.59
2019-04-22T14:49:44.853Z,32.87
2019-04-22T14:52:19.365Z,32.72
2019-04-22T14:54:40.129Z,32.77
2019-04-22T14:56:56.336Z,32.74
2019-04-22T14:59:27.027Z,33.17
2019-04-22T15:01:58.211Z,33.46
2019-04-22T15:04:29.060Z,32.90
2019-04-22T15:07:01.051Z,33.22
2019-04-22T15:09:32.240Z,33.56
2019-04-22T15:12:12.062Z,33.86
2019-04-22T15:14:35.538Z,34.29
2019-04-22T15:17:24.971Z,34.06
2019-04-22T15:20:11.910Z,33.97
2019-04-22T15:22:42.466Z,34.66
2019-04-22T15:25:14.388Z,34.51
2019-04-22T15:27:45.916Z,34.87
2019-04-22T15:30:17.170Z,35.16
2019-04-22T15:32:47.719Z,35.34
2019-04-22T15:35:19.474Z,35.91
2019-04-22T15:37:51.133Z,35.65
2019-04-22T15:40:22.667Z,35.89
2019-04-22T15:42:54.928Z,35.91
2019-04-22T15:45:25.942Z,36.07
2019-04-22T15:47:57.889Z,36.37
2019-04-22T15:50:28.715Z,36.49
2019-04-22T15:53:01.728Z,36.94
2019-04-22T15:55:32.569Z,37.24
2019-04-22T15:58:03.889Z,37.58
2019-04-22T16:00:47.201Z,37.52
2019-04-22T16:03:09.141Z,37.28
2019-04-22T16:05:39.632Z,37.37
2019-04-22T16:08:10.882Z,37.62
2019-04-22T16:10:42.090Z,37.85
2019-04-22T16:13:18.950Z,38.29
2019-04-22T16:15:46.664Z,38.52
2019-04-22T16:18:18.205Z,39.12
2019-04-22T16:20:50.327Z,39.27
2019-04-22T16:23:42.658Z,39.48
2019-04-22T16:26:24.315Z,39.79
2019-04-22T16:28:57.608Z,40.32
2019-04-22T16:31:27.177Z,40.44
2019-04-22T16:33:58.399Z,41.13
2019-04-22T16:36:29.212Z,41.57
2019-04-22T16:39:00.554Z,41.64
2019-04-22T16:41:31.040Z,42.13
2019-04-22T16:44:02.736Z,42.04
2019-04-22T16:46:33.836Z,42.16
2019-04-22T16:49:05.674Z,42.44
2019-04-22T16:51:36.498Z,42.91
2019-04-22T16:54:08.552Z,43.41
2019-04-22T16:56:39.679Z,43.25
2019-04-22T16:59:10.795Z,43.30
2019-04-22T17:02:01.062Z,43.41
2019-04-22T17:04:53.526Z,43.79
2019-04-22T17:07:24.516Z,43.86
2019-04-22T17:09:55.568Z,43.93
2019-04-22T17:12:38.653Z,44.32
2019-04-22T17:15:02.742Z,44.64
2019-04-22T17:17:30.835Z,44.71
2019-04-22T17:20:02.931Z,45.32
2019-04-22T17:22:33.721Z,45.08
2019-04-22T17:25:04.483Z,45.29
2019-04-22T17:27:34.937Z,45.02
2019-04-22T17:30:06.620Z,44.34
2019-04-22T17:32:37.766Z,44.21
2019-04-22T17:35:10.288Z,44.12
2019-04-22T17:37:41.442Z,43.77
2019-04-22T17:40:29.805Z,43.68
2019-04-22T17:43:06.700Z,44.20
2019-04-22T17:45:53.949Z,44.06
2019-04-22T17:49:05.976Z,43.96
2019-04-22T17:51:29.887Z,44.27
2019-04-22T17:53:59.851Z,44.26
2019-04-22T17:56:28.055Z,43.78
2019-04-22T17:58:57.229Z,43.95
2019-04-22T18:01:29.592Z,44.13
2019-04-22T18:03:49.753Z,43.92
2019-04-22T18:06:46.606Z,43.97
2019-04-22T18:09:04.938Z,43.84
2019-04-22T18:11:59.091Z,44.00
2019-04-22T18:14:30.508Z,43.74
2019-04-22T18:16:45.897Z,43.68
2019-04-22T18:19:15.382Z,43.76
2019-04-22T18:21:44.911Z,43.77
2019-04-22T18:24:11.720Z,43.81
2019-04-22T18:26:55.531Z,43.91
2019-04-22T18:29:27.108Z,43.87
2019-04-22T18:31:48.989Z,43.73
2019-04-22T18:34:26.649Z,43.71
2019-04-22T18:37:01.786Z,43.63
2019-04-22T18:39:42.479Z,43.42
2019-04-22T18:42:04.877Z,43.54
2019-04-22T18:44:42.354Z,43.41
2019-04-22T18:47:07.304Z,43.12
2019-04-22T18:49:44.836Z,43.24
2019-04-22T18:52:39.823Z,43.35
2019-04-22T18:55:16.392Z,43.58
2019-04-22T18:58:00.831Z,43.75
2019-04-22T19:00:18.763Z,43.80
2019-04-22T19:02:58.499Z,43.89
2019-04-22T19:05:41.904Z,43.93
2019-04-22T19:11:00.120Z,43.70
2019-04-22T19:13:50.088Z,43.86
2019-04-22T19:16:10.667Z,43.66
2019-04-22T19:18:41.830Z,44.14
2019-04-22T19:21:02.801Z,44.09
2019-04-22T19:23:44.883Z,44.29
2019-04-22T19:25:59.720Z,44.29
2019-04-22T19:31:17.399Z,44.35
2019-04-22T19:33:40.672Z,44.42
2019-04-22T19:36:14.656Z,43.95
2019-04-22T19:38:31.141Z,44.01
2019-04-22T19:41:19.995Z,43.91
2019-04-22T19:43:48.920Z,44.29
2019-04-22T19:46:19.507Z,44.00
2019-04-22T19:48:57.921Z,44.16
2019-04-22T19:51:29.477Z,44.08
2019-04-22T19:53:57.665Z,44.31
2019-04-22T19:56:22.933Z,44.40
2019-04-22T19:58:57.673Z,44.02
2019-04-22T20:01:49.493Z,44.31
2019-04-22T20:04:39.166Z,44.49
2019-04-22T20:07:09.900Z,44.48
2019-04-22T20:09:46.319Z,44.39
2019-04-22T20:12:10.585Z,44.41
2019-04-22T20:14:44.976Z,44.14
2019-04-22T20:17:18.685Z,44.13
2019-04-22T20:19:55.463Z,44.29
2019-04-22T20:22:17.618Z,44.08
2019-04-22T20:24:43.383Z,44.11
2019-04-22T20:27:43.127Z,44.22
2019-04-22T20:29:58.203Z,44.51
2019-04-22T20:32:26.416Z,44.45
2019-04-22T20:35:03.006Z,44.32
2019-04-22T20:37:38.447Z,44.35
2019-04-22T20:40:09.155Z,44.50
2019-04-22T20:45:19.505Z,44.52
2019-04-22T20:47:36.861Z,44.54
2019-04-22T20:50:21.806Z,44.70
2019-04-22T20:52:54.073Z,44.91
2019-04-22T20:55:16.293Z,45.07
2019-04-22T20:57:53.329Z,45.00
2019-04-22T21:00:20.003Z,45.02
2019-04-22T21:02:46.580Z,45.11
2019-04-22T21:05:24.973Z,45.42
2019-04-22T21:08:08.392Z,45.45
2019-04-22T21:10:28.718Z,45.46
2019-04-22T21:13:01.276Z,45.55
2019-04-22T21:15:45.870Z,45.78
2019-04-22T21:18:08.361Z,45.76
2019-04-22T21:20:43.311Z,45.61
2019-04-22T21:23:16.486Z,45.42
2019-04-22T21:25:43.057Z,45.50
2019-04-22T21:28:25.892Z,45.58
2019-04-22T21:30:55.183Z,45.63
2019-04-22T21:33:20.991Z,45.77
2019-04-22T21:36:05.417Z,45.72
2019-04-22T21:38:33.129Z,45.71
2019-04-22T21:41:08.417Z,46.14
2019-04-22T21:43:36.919Z,46.10
2019-04-22T21:46:15.098Z,46.53
2019-04-22T21:48:42.320Z,46.45
2019-04-22T21:51:19.270Z,46.42
2019-04-22T21:53:52.188Z,46.43
2019-04-22T21:56:36.887Z,46.16
2019-04-22T21:58:56.110Z,46.16
2019-04-22T22:01:44.745Z,46.51
2019-04-22T22:04:04.837Z,46.26
2019-04-22T22:06:35.372Z,46.49
2019-04-22T22:09:15.330Z,46.55
2019-04-22T22:11:44.536Z,46.74
2019-04-22T22:14:16.943Z,46.75
2019-04-22T22:16:43.474Z,46.42
2019-04-22T22:19:22.672Z,46.63
2019-04-22T22:22:03.638Z,46.58
2019-04-22T22:24:28.921Z,46.75
2019-04-22T22:26:55.872Z,46.93
2019-04-22T22:29:43.057Z,47.08
2019-04-22T22:32:09.394Z,46.89
2019-04-22T22:34:34.864Z,47.37
2019-04-22T22:37:00.371Z,47.03
2019-04-22T22:39:31.058Z,47.04
2019-04-22T22:41:52.042Z,47.19
2019-04-22T22:44:30.308Z,47.33
2019-04-22T22:47:08.702Z,47.35
2019-04-22T22:49:50.309Z,47.60
2019-04-22T22:54:54.130Z,47.65
2019-04-22T22:57:28.785Z,47.53
2019-04-22T22:59:55.461Z,47.80
2019-04-22T23:02:28.409Z,48.30
2019-04-22T23:05:06.180Z,48.01
2019-04-22T23:07:39.278Z,48.09
2019-04-22T23:10:06.113Z,48.05
2019-04-22T23:12:53.822Z,48.00
2019-04-22T23:15:07.481Z,48.00
2019-04-22T23:17:26.178Z,48.45
2019-04-22T23:19:56.097Z,48.07
2019-04-22T23:22:32.505Z,48.61
2019-04-22T23:25:25.086Z,48.23
2019-04-22T23:27:52.595Z,48.18
2019-04-22T23:30:37.903Z,48.24
2019-04-22T23:33:20.307Z,48.16
2019-04-22T23:36:08.731Z,48.21
2019-04-22T23:38:50.808Z,48.18
2019-04-22T23:44:13.849Z,48.23
2019-04-22T23:46:46.480Z,48.06
2019-04-22T23:49:17.430Z,48.24
2019-04-22T23:52:06.854Z,48.77
2019-04-22T23:54:35.810Z,48.38
2019-04-22T23:56:57.040Z,48.78
